sensor_id;sensor_type;location;lat;lon;timestamp;pressure;altitude;pressure_sealevel;temperature;humidity
52957;BME280;38819;42.692;23.342;2023-06-22T00:00:50;95701.16;;;21.11;68.51
52957;BME280;38819;42.692;23.342;2023-06-22T00:03:18;95701.50;;;21.09;68.68
52957;BME280;38819;42.692;23.342;2023-06-22T00:05:43;95696.97;;;21.01;68.86
52957;BME280;38819;42.692;23.342;2023-06-22T00:08:09;95695.47;;;21.04;68.89
52957;BME280;38819;42.692;23.342;2023-06-22T00:10:35;95683.03;;;20.94;69.04
52957;BME280;38819;42.692;23.342;2023-06-22T00:13:00;95686.38;;;20.87;69.25
52957;BME280;38819;42.692;23.342;2023-06-22T00:15:26;95692.09;;;20.82;69.38
52957;BME280;38819;42.692;23.342;2023-06-22T00:17:51;95692.78;;;20.79;69.22
52957;BME280;38819;42.692;23.342;2023-06-22T00:20:17;95693.59;;;20.80;69.54
52957;BME280;38819;42.692;23.342;2023-06-22T00:22:43;95689.81;;;20.84;69.35
52957;BME280;38819;42.692;23.342;2023-06-22T00:25:09;95685.59;;;20.87;69.43
52957;BME280;38819;42.692;23.342;2023-06-22T00:27:35;95675.63;;;20.82;69.55
52957;BME280;38819;42.692;23.342;2023-06-22T00:30:01;95669.94;;;20.75;69.68
52957;BME280;38819;42.692;23.342;2023-06-22T00:32:27;95673.28;;;20.68;70.14
52957;BME280;38819;42.692;23.342;2023-06-22T00:34:52;95675.19;;;20.68;70.28
52957;BME280;38819;42.692;23.342;2023-06-22T00:37:18;95671.44;;;20.72;70.17
52957;BME280;38819;42.692;23.342;2023-06-22T00:39:43;95672.22;;;20.73;70.22
52957;BME280;38819;42.692;23.342;2023-06-22T00:42:09;95672.81;;;20.66;70.41
52957;BME280;38819;42.692;23.342;2023-06-22T00:44:37;95668.59;;;20.57;71.24
52957;BME280;38819;42.692;23.342;2023-06-22T00:47:03;95668.94;;;20.55;71.00
52957;BME280;38819;42.692;23.342;2023-06-22T00:49:28;95671.56;;;20.64;70.57
52957;BME280;38819;42.692;23.342;2023-06-22T00:51:55;95666.19;;;20.67;70.52
52957;BME280;38819;42.692;23.342;2023-06-22T00:54:22;95673.00;;;20.61;70.94
52957;BME280;38819;42.692;23.342;2023-06-22T00:56:58;95674.41;;;20.55;70.63
52957;BME280;38819;42.692;23.342;2023-06-22T00:59:24;95673.38;;;20.47;70.89
52957;BME280;38819;42.692;23.342;2023-06-22T01:01:51;95680.81;;;20.47;71.62
52957;BME280;38819;42.692;23.342;2023-06-22T01:04:17;95690.19;;;20.46;71.15
52957;BME280;38819;42.692;23.342;2023-06-22T01:07:31;95687.44;;;20.46;70.88
52957;BME280;38819;42.692;23.342;2023-06-22T01:10:09;95688.47;;;20.53;70.30
52957;BME280;38819;42.692;23.342;2023-06-22T01:12:45;95681.03;;;20.54;71.24
52957;BME280;38819;42.692;23.342;2023-06-22T01:15:34;95688.81;;;20.52;71.47
52957;BME280;38819;42.692;23.342;2023-06-22T01:18:03;95682.31;;;20.44;71.74
52957;BME280;38819;42.692;23.342;2023-06-22T01:20:29;95695.47;;;20.39;72.16
52957;BME280;38819;42.692;23.342;2023-06-22T01:23:17;95694.53;;;20.34;72.24
52957;BME280;38819;42.692;23.342;2023-06-22T01:26:18;95683.78;;;20.29;72.30
52957;BME280;38819;42.692;23.342;2023-06-22T01:28:53;95693.84;;;20.38;72.07
52957;BME280;38819;42.692;23.342;2023-06-22T01:31:23;95691.44;;;20.36;72.12
52957;BME280;38819;42.692;23.342;2023-06-22T01:33:52;95690.09;;;20.30;72.11
52957;BME280;38819;42.692;23.342;2023-06-22T01:36:19;95692.63;;;20.35;71.80
52957;BME280;38819;42.692;23.342;2023-06-22T01:38:46;95693.75;;;20.34;72.36
52957;BME280;38819;42.692;23.342;2023-06-22T01:41:13;95694.66;;;20.26;72.78
52957;BME280;38819;42.692;23.342;2023-06-22T01:43:38;95705.16;;;20.36;72.19
52957;BME280;38819;42.692;23.342;2023-06-22T01:46:04;95695.81;;;20.25;72.53
52957;BME280;38819;42.692;23.342;2023-06-22T01:48:31;95703.00;;;20.29;72.56
52957;BME280;38819;42.692;23.342;2023-06-22T01:50:57;95692.50;;;20.31;72.47
52957;BME280;38819;42.692;23.342;2023-06-22T01:53:23;95704.06;;;20.25;72.94
52957;BME280;38819;42.692;23.342;2023-06-22T01:55:48;95707.44;;;20.09;73.39
52957;BME280;38819;42.692;23.342;2023-06-22T01:58:14;95713.53;;;20.15;73.06
52957;BME280;38819;42.692;23.342;2023-06-22T02:00:45;95711.91;;;20.14;73.30
52957;BME280;38819;42.692;23.342;2023-06-22T02:03:14;95710.06;;;20.06;73.43
52957;BME280;38819;42.692;23.342;2023-06-22T02:05:50;95718.53;;;20.13;73.16
52957;BME280;38819;42.692;23.342;2023-06-22T02:08:23;95724.16;;;20.16;72.96
52957;BME280;38819;42.692;23.342;2023-06-22T02:10:50;95726.88;;;20.04;73.67
52957;BME280;38819;42.692;23.342;2023-06-22T02:13:17;95720.13;;;20.02;73.28
52957;BME280;38819;42.692;23.342;2023-06-22T02:15:43;95711.91;;;20.02;72.64
52957;BME280;38819;42.692;23.342;2023-06-22T02:18:10;95708.91;;;19.94;72.99
52957;BME280;38819;42.692;23.342;2023-06-22T02:20:39;95705.16;;;19.87;73.66
52957;BME280;38819;42.692;23.342;2023-06-22T02:23:06;95716.56;;;19.89;73.96
52957;BME280;38819;42.692;23.342;2023-06-22T02:25:32;95710.75;;;19.90;72.95
52957;BME280;38819;42.692;23.342;2023-06-22T02:27:58;95707.78;;;19.83;72.48
52957;BME280;38819;42.692;23.342;2023-06-22T02:30:23;95715.78;;;19.88;72.62
52957;BME280;38819;42.692;23.342;2023-06-22T02:32:49;95704.00;;;19.88;71.26
52957;BME280;38819;42.692;23.342;2023-06-22T02:35:14;95692.91;;;19.84;70.78
52957;BME280;38819;42.692;23.342;2023-06-22T02:37:40;95701.13;;;19.84;71.87
52957;BME280;38819;42.692;23.342;2023-06-22T02:40:10;95701.97;;;19.85;72.22
52957;BME280;38819;42.692;23.342;2023-06-22T02:42:36;95704.56;;;19.81;72.39
52957;BME280;38819;42.692;23.342;2023-06-22T02:45:02;95712.31;;;19.79;72.32
52957;BME280;38819;42.692;23.342;2023-06-22T02:47:27;95704.88;;;19.79;71.98
52957;BME280;38819;42.692;23.342;2023-06-22T02:49:53;95704.44;;;19.77;72.31
52957;BME280;38819;42.692;23.342;2023-06-22T02:52:18;95719.75;;;19.91;71.99
52957;BME280;38819;42.692;23.342;2023-06-22T02:54:44;95716.44;;;19.85;72.03
52957;BME280;38819;42.692;23.342;2023-06-22T02:57:12;95716.00;;;19.83;72.21
52957;BME280;38819;42.692;23.342;2023-06-22T02:59:41;95717.25;;;19.86;72.08
52957;BME280;38819;42.692;23.342;2023-06-22T03:02:08;95720.00;;;19.86;72.21
52957;BME280;38819;42.692;23.342;2023-06-22T03:04:35;95711.88;;;19.89;71.54
52957;BME280;38819;42.692;23.342;2023-06-22T03:07:00;95713.16;;;19.92;71.06
52957;BME280;38819;42.692;23.342;2023-06-22T03:09:27;95724.13;;;20.04;70.97
52957;BME280;38819;42.692;23.342;2023-06-22T03:11:55;95719.00;;;20.15;70.17
52957;BME280;38819;42.692;23.342;2023-06-22T03:14:21;95723.25;;;20.25;69.76
52957;BME280;38819;42.692;23.342;2023-06-22T03:16:46;95729.28;;;20.43;68.52
52957;BME280;38819;42.692;23.342;2023-06-22T03:19:12;95733.19;;;20.66;67.20
52957;BME280;38819;42.692;23.342;2023-06-22T03:21:39;95733.84;;;20.88;66.54
52957;BME280;38819;42.692;23.342;2023-06-22T03:24:06;95744.56;;;21.05;65.51
52957;BME280;38819;42.692;23.342;2023-06-22T03:26:31;95737.75;;;21.27;65.07
52957;BME280;38819;42.692;23.342;2023-06-22T03:28:57;95744.69;;;21.37;64.51
52957;BME280;38819;42.692;23.342;2023-06-22T03:31:22;95743.09;;;21.49;64.04
52957;BME280;38819;42.692;23.342;2023-06-22T03:33:48;95750.25;;;21.53;64.02
52957;BME280;38819;42.692;23.342;2023-06-22T03:36:15;95749.66;;;21.60;64.19
52957;BME280;38819;42.692;23.342;2023-06-22T03:38:45;95748.53;;;21.61;64.02
52957;BME280;38819;42.692;23.342;2023-06-22T03:41:11;95753.13;;;21.57;63.62
52957;BME280;38819;42.692;23.342;2023-06-22T03:43:36;95748.47;;;21.33;63.97
52957;BME280;38819;42.692;23.342;2023-06-22T03:46:02;95755.97;;;21.20;64.88
52957;BME280;38819;42.692;23.342;2023-06-22T03:48:27;95764.28;;;21.36;64.55
52957;BME280;38819;42.692;23.342;2023-06-22T03:50:53;95763.34;;;21.32;65.18
52957;BME280;38819;42.692;23.342;2023-06-22T03:53:18;95768.47;;;21.17;65.70
52957;BME280;38819;42.692;23.342;2023-06-22T03:55:51;95775.38;;;20.99;66.47
52957;BME280;38819;42.692;23.342;2023-06-22T03:58:19;95781.09;;;20.81;67.24
52957;BME280;38819;42.692;23.342;2023-06-22T04:00:48;95775.25;;;20.58;68.20
52957;BME280;38819;42.692;23.342;2023-06-22T04:03:14;95769.88;;;20.37;68.57
52957;BME280;38819;42.692;23.342;2023-06-22T04:05:41;95775.69;;;20.23;69.01
52957;BME280;38819;42.692;23.342;2023-06-22T04:08:07;95775.22;;;20.21;69.31
52957;BME280;38819;42.692;23.342;2023-06-22T04:10:33;95774.63;;;20.03;68.85
52957;BME280;38819;42.692;23.342;2023-06-22T04:13:00;95769.59;;;20.05;68.90
52957;BME280;38819;42.692;23.342;2023-06-22T04:15:25;95754.88;;;20.10;68.60
52957;BME280;38819;42.692;23.342;2023-06-22T04:17:50;95761.28;;;20.14;68.45
52957;BME280;38819;42.692;23.342;2023-06-22T04:20:16;95752.03;;;20.18;68.13
52957;BME280;38819;42.692;23.342;2023-06-22T04:22:41;95752.13;;;20.34;68.07
52957;BME280;38819;42.692;23.342;2023-06-22T04:25:07;95745.19;;;20.37;67.35
52957;BME280;38819;42.692;23.342;2023-06-22T04:27:33;95736.16;;;20.49;66.67
52957;BME280;38819;42.692;23.342;2023-06-22T04:30:06;95735.56;;;20.55;66.29
52957;BME280;38819;42.692;23.342;2023-06-22T04:32:32;95736.63;;;20.63;66.43
52957;BME280;38819;42.692;23.342;2023-06-22T04:34:58;95739.94;;;20.69;66.38
52957;BME280;38819;42.692;23.342;2023-06-22T04:37:25;95746.56;;;20.80;66.50
52957;BME280;38819;42.692;23.342;2023-06-22T04:39:50;95746.44;;;20.89;66.63
52957;BME280;38819;42.692;23.342;2023-06-22T04:42:16;95748.25;;;20.97;66.60
52957;BME280;38819;42.692;23.342;2023-06-22T04:44:41;95742.63;;;21.06;66.57
52957;BME280;38819;42.692;23.342;2023-06-22T04:47:07;95747.97;;;21.15;66.37
52957;BME280;38819;42.692;23.342;2023-06-22T04:49:36;95738.84;;;21.10;66.45
52957;BME280;38819;42.692;23.342;2023-06-22T04:52:12;95755.25;;;21.23;66.01
52957;BME280;38819;42.692;23.342;2023-06-22T04:54:39;95762.63;;;21.19;66.30
52957;BME280;38819;42.692;23.342;2023-06-22T04:57:06;95762.03;;;21.25;65.67
52957;BME280;38819;42.692;23.342;2023-06-22T04:59:36;95765.41;;;21.35;65.78
52957;BME280;38819;42.692;23.342;2023-06-22T05:02:04;95765.41;;;21.35;64.93
52957;BME280;38819;42.692;23.342;2023-06-22T05:04:30;95761.44;;;21.20;64.82
52957;BME280;38819;42.692;23.342;2023-06-22T05:07:01;95762.75;;;21.10;64.56
52957;BME280;38819;42.692;23.342;2023-06-22T05:09:26;95755.41;;;21.14;65.67
52957;BME280;38819;42.692;23.342;2023-06-22T05:11:52;95761.09;;;21.21;65.05
52957;BME280;38819;42.692;23.342;2023-06-22T05:14:18;95757.88;;;21.32;64.57
52957;BME280;38819;42.692;23.342;2023-06-22T05:16:44;95751.72;;;21.22;64.67
52957;BME280;38819;42.692;23.342;2023-06-22T05:19:10;95756.81;;;21.36;64.60
52957;BME280;38819;42.692;23.342;2023-06-22T05:21:36;95752.03;;;21.33;64.17
52957;BME280;38819;42.692;23.342;2023-06-22T05:24:02;95766.53;;;21.46;64.18
52957;BME280;38819;42.692;23.342;2023-06-22T05:26:32;95761.34;;;21.28;64.49
52957;BME280;38819;42.692;23.342;2023-06-22T05:29:00;95774.47;;;21.48;64.14
52957;BME280;38819;42.692;23.342;2023-06-22T05:31:26;95773.75;;;21.51;64.38
52957;BME280;38819;42.692;23.342;2023-06-22T05:33:53;95772.56;;;21.23;64.57
52957;BME280;38819;42.692;23.342;2023-06-22T05:36:19;95780.44;;;21.25;65.19
52957;BME280;38819;42.692;23.342;2023-06-22T05:38:45;95775.66;;;21.22;64.46
52957;BME280;38819;42.692;23.342;2023-06-22T05:41:11;95774.50;;;21.23;64.49
52957;BME280;38819;42.692;23.342;2023-06-22T05:43:36;95786.41;;;21.27;64.45
52957;BME280;38819;42.692;23.342;2023-06-22T05:46:03;95791.22;;;21.18;64.04
52957;BME280;38819;42.692;23.342;2023-06-22T05:48:28;95798.53;;;21.26;63.94
52957;BME280;38819;42.692;23.342;2023-06-22T05:50:54;95789.84;;;21.24;63.88
52957;BME280;38819;42.692;23.342;2023-06-22T05:53:20;95790.03;;;21.31;63.67
52957;BME280;38819;42.692;23.342;2023-06-22T05:55:46;95783.72;;;21.43;63.54
52957;BME280;38819;42.692;23.342;2023-06-22T05:58:11;95790.88;;;21.60;63.78
52957;BME280;38819;42.692;23.342;2023-06-22T06:00:39;95792.91;;;21.75;63.65
52957;BME280;38819;42.692;23.342;2023-06-22T06:03:04;95774.72;;;21.87;63.28
52957;BME280;38819;42.692;23.342;2023-06-22T06:05:31;95781.88;;;22.04;63.00
52957;BME280;38819;42.692;23.342;2023-06-22T06:07:57;95786.69;;;22.23;62.62
52957;BME280;38819;42.692;23.342;2023-06-22T06:10:23;95780.69;;;22.33;61.89
52957;BME280;38819;42.692;23.342;2023-06-22T06:12:48;95783.97;;;22.38;61.81
52957;BME280;38819;42.692;23.342;2023-06-22T06:15:14;95768.50;;;22.50;61.97
52957;BME280;38819;42.692;23.342;2023-06-22T06:17:50;95769.31;;;22.66;61.59
52957;BME280;38819;42.692;23.342;2023-06-22T06:20:18;95769.66;;;22.81;61.10
52957;BME280;38819;42.692;23.342;2023-06-22T06:22:44;95777.00;;;22.92;60.64
52957;BME280;38819;42.692;23.342;2023-06-22T06:25:09;95777.78;;;23.09;60.74
52957;BME280;38819;42.692;23.342;2023-06-22T06:27:35;95778.38;;;23.18;60.37
52957;BME280;38819;42.692;23.342;2023-06-22T06:30:00;95774.25;;;23.28;59.88
52957;BME280;38819;42.692;23.342;2023-06-22T06:32:27;95777.22;;;23.39;59.41
52957;BME280;38819;42.692;23.342;2023-06-22T06:34:52;95765.66;;;23.49;58.72
52957;BME280;38819;42.692;23.342;2023-06-22T06:37:17;95758.72;;;23.59;58.04
52957;BME280;38819;42.692;23.342;2023-06-22T06:39:44;95763.50;;;23.62;58.24
52957;BME280;38819;42.692;23.342;2023-06-22T06:42:09;95762.25;;;23.79;58.45
52957;BME280;38819;42.692;23.342;2023-06-22T06:44:36;95756.50;;;23.84;58.70
52957;BME280;38819;42.692;23.342;2023-06-22T06:47:03;95753.44;;;23.89;58.15
52957;BME280;38819;42.692;23.342;2023-06-22T06:49:29;95748.13;;;24.00;57.97
52957;BME280;38819;42.692;23.342;2023-06-22T06:51:54;95749.84;;;24.08;57.68
52957;BME280;38819;42.692;23.342;2023-06-22T06:54:21;95742.06;;;23.91;57.89
52957;BME280;38819;42.692;23.342;2023-06-22T06:56:46;95742.13;;;23.94;58.15
52957;BME280;38819;42.692;23.342;2023-06-22T06:59:15;95751.22;;;23.98;58.15
52957;BME280;38819;42.692;23.342;2023-06-22T07:01:42;95746.63;;;23.83;58.52
52957;BME280;38819;42.692;23.342;2023-06-22T07:04:10;95742.59;;;23.80;58.87
52957;BME280;38819;42.692;23.342;2023-06-22T07:06:35;95738.50;;;23.71;58.08
52957;BME280;38819;42.692;23.342;2023-06-22T07:09:00;95752.84;;;23.80;57.59
52957;BME280;38819;42.692;23.342;2023-06-22T07:11:26;95749.38;;;23.83;58.47
52957;BME280;38819;42.692;23.342;2023-06-22T07:13:52;95747.69;;;23.78;59.27
52957;BME280;38819;42.692;23.342;2023-06-22T07:16:17;95742.78;;;23.88;59.31
52957;BME280;38819;42.692;23.342;2023-06-22T07:18:43;95742.25;;;23.82;58.57
52957;BME280;38819;42.692;23.342;2023-06-22T07:21:09;95747.06;;;23.85;59.08
52957;BME280;38819;42.692;23.342;2023-06-22T07:23:34;95734.03;;;23.85;59.31
52957;BME280;38819;42.692;23.342;2023-06-22T07:26:00;95745.66;;;23.95;58.41
52957;BME280;38819;42.692;23.342;2023-06-22T07:28:31;95743.59;;;24.11;58.05
52957;BME280;38819;42.692;23.342;2023-06-22T07:31:02;95743.28;;;24.16;58.62
52957;BME280;38819;42.692;23.342;2023-06-22T07:33:28;95741.81;;;24.22;59.17
52957;BME280;38819;42.692;23.342;2023-06-22T07:35:53;95739.84;;;24.23;58.24
52957;BME280;38819;42.692;23.342;2023-06-22T07:38:18;95755.25;;;24.24;58.44
52957;BME280;38819;42.692;23.342;2023-06-22T07:40:44;95751.69;;;24.23;57.60
52957;BME280;38819;42.692;23.342;2023-06-22T07:43:09;95751.38;;;24.29;58.27
52957;BME280;38819;42.692;23.342;2023-06-22T07:45:35;95748.91;;;24.23;57.24
52957;BME280;38819;42.692;23.342;2023-06-22T07:48:01;95749.66;;;24.20;57.02
52957;BME280;38819;42.692;23.342;2023-06-22T07:50:26;95752.59;;;24.31;57.00
52957;BME280;38819;42.692;23.342;2023-06-22T07:52:52;95740.84;;;24.34;56.92
52957;BME280;38819;42.692;23.342;2023-06-22T07:55:18;95746.94;;;24.47;57.15
52957;BME280;38819;42.692;23.342;2023-06-22T07:57:43;95740.03;;;24.57;56.54
52957;BME280;38819;42.692;23.342;2023-06-22T08:00:09;95750.75;;;24.62;56.90
52957;BME280;38819;42.692;23.342;2023-06-22T08:02:41;95730.28;;;24.63;55.86
52957;BME280;38819;42.692;23.342;2023-06-22T08:05:07;95727.28;;;24.75;55.73
52957;BME280;38819;42.692;23.342;2023-06-22T08:07:35;95727.09;;;24.88;56.36
52957;BME280;38819;42.692;23.342;2023-06-22T08:10:02;95733.13;;;24.97;55.63
52957;BME280;38819;42.692;23.342;2023-06-22T08:12:27;95724.63;;;25.09;55.64
52957;BME280;38819;42.692;23.342;2023-06-22T08:14:53;95718.66;;;25.07;55.34
52957;BME280;38819;42.692;23.342;2023-06-22T08:17:18;95712.16;;;25.23;55.22
52957;BME280;38819;42.692;23.342;2023-06-22T08:19:43;95720.16;;;25.28;56.47
52957;BME280;38819;42.692;23.342;2023-06-22T08:22:09;95715.94;;;25.38;54.39
52957;BME280;38819;42.692;23.342;2023-06-22T08:24:34;95713.25;;;25.45;54.18
52957;BME280;38819;42.692;23.342;2023-06-22T08:27:00;95705.81;;;25.52;53.47
52957;BME280;38819;42.692;23.342;2023-06-22T08:29:25;95709.47;;;25.60;53.12
52957;BME280;38819;42.692;23.342;2023-06-22T08:31:50;95709.97;;;25.69;53.07
52957;BME280;38819;42.692;23.342;2023-06-22T08:34:16;95703.72;;;25.76;53.26
52957;BME280;38819;42.692;23.342;2023-06-22T08:36:43;95711.66;;;25.81;52.86
52957;BME280;38819;42.692;23.342;2023-06-22T08:39:10;95713.69;;;25.84;53.48
52957;BME280;38819;42.692;23.342;2023-06-22T08:41:35;95712.13;;;25.87;53.82
52957;BME280;38819;42.692;23.342;2023-06-22T08:44:01;95711.81;;;25.96;53.16
52957;BME280;38819;42.692;23.342;2023-06-22T08:46:26;95714.59;;;25.96;52.01
52957;BME280;38819;42.692;23.342;2023-06-22T08:48:56;95707.09;;;25.96;52.99
52957;BME280;38819;42.692;23.342;2023-06-22T08:51:23;95715.81;;;25.98;53.39
52957;BME280;38819;42.692;23.342;2023-06-22T08:53:48;95707.91;;;25.97;53.48
52957;BME280;38819;42.692;23.342;2023-06-22T08:56:14;95708.34;;;26.02;53.04
52957;BME280;38819;42.692;23.342;2023-06-22T08:58:39;95700.88;;;26.06;52.63
52957;BME280;38819;42.692;23.342;2023-06-22T09:01:05;95687.44;;;26.09;52.89
52957;BME280;38819;42.692;23.342;2023-06-22T09:03:30;95685.16;;;26.18;53.42
52957;BME280;38819;42.692;23.342;2023-06-22T09:05:57;95689.97;;;26.24;54.11
52957;BME280;38819;42.692;23.342;2023-06-22T09:08:23;95689.81;;;26.10;53.05
52957;BME280;38819;42.692;23.342;2023-06-22T09:10:48;95694.28;;;26.22;52.65
52957;BME280;38819;42.692;23.342;2023-06-22T09:13:13;95689.97;;;26.24;52.75
52957;BME280;38819;42.692;23.342;2023-06-22T09:15:40;95694.34;;;26.33;52.23
52957;BME280;38819;42.692;23.342;2023-06-22T09:18:06;95684.84;;;26.30;52.45
52957;BME280;38819;42.692;23.342;2023-06-22T09:20:31;95688.00;;;26.29;53.08
52957;BME280;38819;42.692;23.342;2023-06-22T09:22:57;95688.06;;;26.36;52.82
52957;BME280;38819;42.692;23.342;2023-06-22T09:25:23;95688.06;;;26.39;52.74
52957;BME280;38819;42.692;23.342;2023-06-22T09:27:48;95691.69;;;26.43;52.79
52957;BME280;38819;42.692;23.342;2023-06-22T09:30:14;95698.91;;;26.55;52.46
52957;BME280;38819;42.692;23.342;2023-06-22T09:32:39;95695.75;;;26.57;51.21
52957;BME280;38819;42.692;23.342;2023-06-22T09:35:05;95697.34;;;26.61;50.76
52957;BME280;38819;42.692;23.342;2023-06-22T09:37:31;95696.59;;;26.65;51.97
52957;BME280;38819;42.692;23.342;2023-06-22T09:39:57;95695.81;;;26.64;51.38
52957;BME280;38819;42.692;23.342;2023-06-22T09:42:22;95702.47;;;26.59;48.77
52957;BME280;38819;42.692;23.342;2023-06-22T09:44:48;95701.00;;;26.69;49.97
52957;BME280;38819;42.692;23.342;2023-06-22T09:47:13;95696.66;;;26.72;49.93
52957;BME280;38819;42.692;23.342;2023-06-22T09:49:39;95690.31;;;26.71;50.22
52957;BME280;38819;42.692;23.342;2023-06-22T09:52:05;95681.69;;;26.80;50.16
52957;BME280;38819;42.692;23.342;2023-06-22T09:54:30;95680.09;;;26.83;48.90
52957;BME280;38819;42.692;23.342;2023-06-22T09:56:56;95675.75;;;26.85;49.22
52957;BME280;38819;42.692;23.342;2023-06-22T09:59:21;95676.53;;;26.82;48.96
52957;BME280;38819;42.692;23.342;2023-06-22T10:01:47;95678.19;;;26.94;48.17
52957;BME280;38819;42.692;23.342;2023-06-22T10:04:12;95670.25;;;26.96;46.84
52957;BME280;38819;42.692;23.342;2023-06-22T10:06:38;95671.50;;;27.02;46.49
52957;BME280;38819;42.692;23.342;2023-06-22T10:09:06;95671.53;;;27.09;46.24
52957;BME280;38819;42.692;23.342;2023-06-22T10:11:31;95663.22;;;27.13;45.68
52957;BME280;38819;42.692;23.342;2023-06-22T10:14:00;95666.00;;;27.13;46.02
52957;BME280;38819;42.692;23.342;2023-06-22T10:16:30;95662.50;;;27.23;45.64
52957;BME280;38819;42.692;23.342;2023-06-22T10:18:56;95660.09;;;27.22;45.92
52957;BME280;38819;42.692;23.342;2023-06-22T10:21:22;95656.13;;;27.23;46.13
52957;BME280;38819;42.692;23.342;2023-06-22T10:23:47;95651.44;;;27.30;46.44
52957;BME280;38819;42.692;23.342;2023-06-22T10:26:12;95655.41;;;27.33;46.18
52957;BME280;38819;42.692;23.342;2023-06-22T10:28:38;95660.97;;;27.37;46.23
52957;BME280;38819;42.692;23.342;2023-06-22T10:31:03;95654.66;;;27.43;46.09
52957;BME280;38819;42.692;23.342;2023-06-22T10:33:29;95659.00;;;27.48;45.44
52957;BME280;38819;42.692;23.342;2023-06-22T10:35:55;95654.66;;;27.47;46.28
52957;BME280;38819;42.692;23.342;2023-06-22T10:38:20;95647.53;;;27.49;45.40
52957;BME280;38819;42.692;23.342;2023-06-22T10:40:46;95643.19;;;27.56;46.14
52957;BME280;38819;42.692;23.342;2023-06-22T10:43:11;95639.63;;;27.55;46.16
52957;BME280;38819;42.692;23.342;2023-06-22T10:45:37;95655.91;;;27.64;46.16
52957;BME280;38819;42.692;23.342;2023-06-22T10:48:03;95641.25;;;27.67;45.38
52957;BME280;38819;42.692;23.342;2023-06-22T10:50:28;95634.53;;;27.75;44.21
52957;BME280;38819;42.692;23.342;2023-06-22T10:52:54;95640.84;;;27.83;43.98
52957;BME280;38819;42.692;23.342;2023-06-22T10:55:19;95626.19;;;27.75;43.96
52957;BME280;38819;42.692;23.342;2023-06-22T10:57:45;95631.34;;;27.84;44.54
52957;BME280;38819;42.692;23.342;2023-06-22T11:00:14;95641.28;;;27.92;43.98
52957;BME280;38819;42.692;23.342;2023-06-22T11:02:39;95633.75;;;27.93;43.99
52957;BME280;38819;42.692;23.342;2023-06-22T11:05:05;95632.97;;;27.96;43.45
52957;BME280;38819;42.692;23.342;2023-06-22T11:07:31;95632.94;;;27.92;43.41
52957;BME280;38819;42.692;23.342;2023-06-22T11:09:56;95625.41;;;27.85;43.91
52957;BME280;38819;42.692;23.342;2023-06-22T11:12:22;95625.03;;;27.94;44.53
52957;BME280;38819;42.692;23.342;2023-06-22T11:14:47;95630.16;;;27.92;43.93
52957;BME280;38819;42.692;23.342;2023-06-22T11:17:15;95623.44;;;27.93;44.43
52957;BME280;38819;42.692;23.342;2023-06-22T11:19:40;95617.47;;;27.91;44.17
52957;BME280;38819;42.692;23.342;2023-06-22T11:22:06;95615.13;;;28.04;44.23
52957;BME280;38819;42.692;23.342;2023-06-22T11:24:31;95611.56;;;28.03;43.86
52957;BME280;38819;42.692;23.342;2023-06-22T11:26:57;95620.69;;;28.07;43.69
52957;BME280;38819;42.692;23.342;2023-06-22T11:29:23;95598.47;;;28.00;43.11
52957;BME280;38819;42.692;23.342;2023-06-22T11:31:48;95611.16;;;28.23;42.72
52957;BME280;38819;42.692;23.342;2023-06-22T11:34:13;95605.19;;;28.28;42.78
52957;BME280;38819;42.692;23.342;2023-06-22T11:36:40;95600.84;;;28.31;43.34
52957;BME280;38819;42.692;23.342;2023-06-22T11:39:05;95601.59;;;28.38;43.61
52957;BME280;38819;42.692;23.342;2023-06-22T11:41:31;95604.78;;;28.40;43.06
52957;BME280;38819;42.692;23.342;2023-06-22T11:43:56;95601.63;;;28.31;43.71
52957;BME280;38819;42.692;23.342;2023-06-22T11:46:22;95610.34;;;28.37;43.29
52957;BME280;38819;42.692;23.342;2023-06-22T11:48:47;95590.13;;;28.33;43.51
52957;BME280;38819;42.692;23.342;2023-06-22T11:51:12;95596.44;;;28.33;43.59
52957;BME280;38819;42.692;23.342;2023-06-22T11:53:39;95592.88;;;28.33;44.08
52957;BME280;38819;42.692;23.342;2023-06-22T11:56:04;95590.09;;;28.40;43.54
52957;BME280;38819;42.692;23.342;2023-06-22T11:58:30;95594.84;;;28.39;42.40
52957;BME280;38819;42.692;23.342;2023-06-22T12:00:55;95598.03;;;28.34;41.99
52957;BME280;38819;42.692;23.342;2023-06-22T12:03:21;95584.56;;;28.33;42.98
52957;BME280;38819;42.692;23.342;2023-06-22T12:05:47;95592.06;;;28.46;43.42
52957;BME280;38819;42.692;23.342;2023-06-22T12:08:13;95588.91;;;28.44;43.32
52957;BME280;38819;42.692;23.342;2023-06-22T12:10:39;95588.50;;;28.50;42.99
52957;BME280;38819;42.692;23.342;2023-06-22T12:13:04;95599.59;;;28.50;43.30
52957;BME280;38819;42.692;23.342;2023-06-22T12:15:30;95604.00;;;28.43;42.93
52957;BME280;38819;42.692;23.342;2023-06-22T12:17:55;95607.97;;;28.32;44.02
52957;BME280;38819;42.692;23.342;2023-06-22T12:20:20;95607.56;;;28.33;43.94
52957;BME280;38819;42.692;23.342;2023-06-22T12:22:46;95609.16;;;28.20;44.64
52957;BME280;38819;42.692;23.342;2023-06-22T12:25:12;95623.84;;;28.06;45.12
52957;BME280;38819;42.692;23.342;2023-06-22T12:27:38;95633.75;;;27.96;47.08
52957;BME280;38819;42.692;23.342;2023-06-22T12:30:04;95637.69;;;27.84;47.87
52957;BME280;38819;42.692;23.342;2023-06-22T12:32:30;95657.91;;;27.70;48.30
52957;BME280;38819;42.692;23.342;2023-06-22T12:34:55;95651.13;;;27.68;50.25
52957;BME280;38819;42.692;23.342;2023-06-22T12:37:21;95663.00;;;27.43;51.65
52957;BME280;38819;42.692;23.342;2023-06-22T12:39:47;95654.63;;;27.40;52.70
52957;BME280;38819;42.692;23.342;2023-06-22T12:42:12;95653.75;;;27.21;54.32
52957;BME280;38819;42.692;23.342;2023-06-22T12:44:38;95645.84;;;27.23;53.90
52957;BME280;38819;42.692;23.342;2023-06-22T12:47:05;95648.97;;;27.18;54.21